sensor_id;sensor_type;location;lat;lon;timestamp;P1;P2;P0
64229;PMS5003;50547;49.498;0.092;2022-11-13T00:01:43;31;27;
64229;PMS5003;50547;49.498;0.092;2022-11-13T00:04:12;32;28;
64229;PMS5003;50547;49.498;0.092;2022-11-13T00:06:41;31;27;
64229;PMS5003;50547;49.498;0.092;2022-11-13T00:09:10;32;28;
64229;PMS5003;50547;49.498;0.092;2022-11-13T00:11:40;30;26;
64229;PMS5003;50547;49.498;0.092;2022-11-13T00:14:09;31;27;
64229;PMS5003;50547;49.498;0.092;2022-11-13T00:16:38;32;28;
64229;PMS5003;50547;49.498;0.092;2022-11-13T00:19:07;30;26;
64229;PMS5003;50547;49.498;0.092;2022-11-13T00:21:36;30;26;
64229;PMS5003;50547;49.498;0.092;2022-11-13T00:24:06;30;26;
64229;PMS5003;50547;49.498;0.092;2022-11-13T00:26:35;31;27;
64229;PMS5003;50547;49.498;0.092;2022-11-13T00:29:04;30;26;
64229;PMS5003;50547;49.498;0.092;2022-11-13T00:31:34;31;27;
64229;PMS5003;50547;49.498;0.092;2022-11-13T00:34:03;33;28;
64229;PMS5003;50547;49.498;0.092;2022-11-13T00:36:32;34;29;
64229;PMS5003;50547;49.498;0.092;2022-11-13T00:39:01;33;28;
64229;PMS5003;50547;49.498;0.092;2022-11-13T00:41:31;33;28;
64229;PMS5003;50547;49.498;0.092;2022-11-13T00:44:00;35;30;
64229;PMS5003;50547;49.498;0.092;2022-11-13T00:46:29;36;31;
64229;PMS5003;50547;49.498;0.092;2022-11-13T00:48:58;35;30;
64229;PMS5003;50547;49.498;0.092;2022-11-13T00:51:28;35;30;
64229;PMS5003;50547;49.498;0.092;2022-11-13T00:53:57;36;31;
64229;PMS5003;50547;49.498;0.092;2022-11-13T00:56:26;36;31;
64229;PMS5003;50547;49.498;0.092;2022-11-13T00:58:55;35;30;
64229;PMS5003;50547;49.498;0.092;2022-11-13T01:01:24;36;31;
64229;PMS5003;50547;49.498;0.092;2022-11-13T01:03:53;37;33;
64229;PMS5003;50547;49.498;0.092;2022-11-13T01:06:23;37;33;
64229;PMS5003;50547;49.498;0.092;2022-11-13T01:08:54;37;33;
64229;PMS5003;50547;49.498;0.092;2022-11-13T01:11:25;38;35;
64229;PMS5003;50547;49.498;0.092;2022-11-13T01:13:57;38;35;
64229;PMS5003;50547;49.498;0.092;2022-11-13T01:16:26;38;35;
64229;PMS5003;50547;49.498;0.092;2022-11-13T01:18:56;37;33;
64229;PMS5003;50547;49.498;0.092;2022-11-13T01:21:26;38;35;
64229;PMS5003;50547;49.498;0.092;2022-11-13T01:23:55;37;33;
64229;PMS5003;50547;49.498;0.092;2022-11-13T01:26:25;38;35;
64229;PMS5003;50547;49.498;0.092;2022-11-13T01:28:57;37;33;
64229;PMS5003;50547;49.498;0.092;2022-11-13T01:31:28;37;33;
64229;PMS5003;50547;49.498;0.092;2022-11-13T01:33:58;36;31;
64229;PMS5003;50547;49.498;0.092;2022-11-13T01:36:28;34;29;
64229;PMS5003;50547;49.498;0.092;2022-11-13T01:38:57;36;31;
64229;PMS5003;50547;49.498;0.092;2022-11-13T01:41:27;38;35;
64229;PMS5003;50547;49.498;0.092;2022-11-13T01:43:58;37;33;
64229;PMS5003;50547;49.498;0.092;2022-11-13T01:46:29;38;35;
64229;PMS5003;50547;49.498;0.092;2022-11-13T01:49:01;38;35;
64229;PMS5003;50547;49.498;0.092;2022-11-13T01:51:40;42;40;
64229;PMS5003;50547;49.498;0.092;2022-11-13T01:54:14;44;43;
64229;PMS5003;50547;49.498;0.092;2022-11-13T01:56:52;51;45;
64229;PMS5003;50547;49.498;0.092;2022-11-13T01:59:23;51;45;
64229;PMS5003;50547;49.498;0.092;2022-11-13T02:01:55;60;53;
64229;PMS5003;50547;49.498;0.092;2022-11-13T02:04:24;62;53;
64229;PMS5003;50547;49.498;0.092;2022-11-13T02:06:55;60;53;
64229;PMS5003;50547;49.498;0.092;2022-11-13T02:09:28;57;50;
64229;PMS5003;50547;49.498;0.092;2022-11-13T02:12:03;60;53;
64229;PMS5003;50547;49.498;0.092;2022-11-13T02:14:36;62;53;
64229;PMS5003;50547;49.498;0.092;2022-11-13T02:17:09;73;61;
64229;PMS5003;50547;49.498;0.092;2022-11-13T02:19:43;58;51;
64229;PMS5003;50547;49.498;0.092;2022-11-13T02:22:16;51;45;
64229;PMS5003;50547;49.498;0.092;2022-11-13T02:24:53;42;40;
64229;PMS5003;50547;49.498;0.092;2022-11-13T02:27:28;40;36;
64229;PMS5003;50547;49.498;0.092;2022-11-13T02:30:10;38;35;
64229;PMS5003;50547;49.498;0.092;2022-11-13T02:32:42;40;36;
64229;PMS5003;50547;49.498;0.092;2022-11-13T02:35:13;37;33;
64229;PMS5003;50547;49.498;0.092;2022-11-13T02:37:45;37;33;
64229;PMS5003;50547;49.498;0.092;2022-11-13T02:40:14;37;33;
64229;PMS5003;50547;49.498;0.092;2022-11-13T02:42:44;36;31;
64229;PMS5003;50547;49.498;0.092;2022-11-13T02:45:13;35;30;
64229;PMS5003;50547;49.498;0.092;2022-11-13T02:47:42;37;33;
64229;PMS5003;50547;49.498;0.092;2022-11-13T02:50:11;38;35;
64229;PMS5003;50547;49.498;0.092;2022-11-13T02:52:41;41;38;
64229;PMS5003;50547;49.498;0.092;2022-11-13T02:55:10;42;40;
64229;PMS5003;50547;49.498;0.092;2022-11-13T02:57:40;44;43;
64229;PMS5003;50547;49.498;0.092;2022-11-13T03:00:09;51;45;
64229;PMS5003;50547;49.498;0.092;2022-11-13T03:02:39;53;46;
64229;PMS5003;50547;49.498;0.092;2022-11-13T03:05:08;64;55;
64229;PMS5003;50547;49.498;0.092;2022-11-13T03:07:38;67;58;
64229;PMS5003;50547;49.498;0.092;2022-11-13T03:10:07;60;53;
64229;PMS5003;50547;49.498;0.092;2022-11-13T03:12:38;67;58;
64229;PMS5003;50547;49.498;0.092;2022-11-13T03:15:08;85;71;
64229;PMS5003;50547;49.498;0.092;2022-11-13T03:17:38;74;63;
64229;PMS5003;50547;49.498;0.092;2022-11-13T03:20:07;82;68;
64229;PMS5003;50547;49.498;0.092;2022-11-13T03:22:37;87;73;
64229;PMS5003;50547;49.498;0.092;2022-11-13T03:25:06;82;68;
64229;PMS5003;50547;49.498;0.092;2022-11-13T03:27:36;67;58;
64229;PMS5003;50547;49.498;0.092;2022-11-13T03:30:06;58;51;
64229;PMS5003;50547;49.498;0.092;2022-11-13T03:32:36;42;40;
64229;PMS5003;50547;49.498;0.092;2022-11-13T03:35:05;51;45;
64229;PMS5003;50547;49.498;0.092;2022-11-13T03:37:35;53;46;
64229;PMS5003;50547;49.498;0.092;2022-11-13T03:40:05;62;53;
64229;PMS5003;50547;49.498;0.092;2022-11-13T03:42:35;58;51;
64229;PMS5003;50547;49.498;0.092;2022-11-13T03:45:04;57;50;
64229;PMS5003;50547;49.498;0.092;2022-11-13T03:47:33;55;48;
64229;PMS5003;50547;49.498;0.092;2022-11-13T03:50:03;42;40;
64229;PMS5003;50547;49.498;0.092;2022-11-13T03:52:33;45;43;
64229;PMS5003;50547;49.498;0.092;2022-11-13T03:55:02;60;53;
64229;PMS5003;50547;49.498;0.092;2022-11-13T03:57:32;55;48;
64229;PMS5003;50547;49.498;0.092;2022-11-13T04:00:01;60;53;
64229;PMS5003;50547;49.498;0.092;2022-11-13T04:02:34;55;48;
64229;PMS5003;50547;49.498;0.092;2022-11-13T04:05:04;42;40;
64229;PMS5003;50547;49.498;0.092;2022-11-13T04:07:34;51;45;
64229;PMS5003;50547;49.498;0.092;2022-11-13T04:10:04;53;46;
64229;PMS5003;50547;49.498;0.092;2022-11-13T04:12:34;43;41;
64229;PMS5003;50547;49.498;0.092;2022-11-13T04:15:03;57;50;
64229;PMS5003;50547;49.498;0.092;2022-11-13T04:17:33;53;46;
64229;PMS5003;50547;49.498;0.092;2022-11-13T04:20:02;53;46;
64229;PMS5003;50547;49.498;0.092;2022-11-13T04:22:32;51;45;
64229;PMS5003;50547;49.498;0.092;2022-11-13T04:25:01;44;43;
64229;PMS5003;50547;49.498;0.092;2022-11-13T04:27:31;64;55;
64229;PMS5003;50547;49.498;0.092;2022-11-13T04:30:00;58;51;
64229;PMS5003;50547;49.498;0.092;2022-11-13T04:32:30;62;53;
64229;PMS5003;50547;49.498;0.092;2022-11-13T04:35:00;66;56;
64229;PMS5003;50547;49.498;0.092;2022-11-13T04:37:29;73;61;
64229;PMS5003;50547;49.498;0.092;2022-11-13T04:39:58;80;68;
64229;PMS5003;50547;49.498;0.092;2022-11-13T04:42:27;74;63;
64229;PMS5003;50547;49.498;0.092;2022-11-13T04:44:56;73;61;
64229;PMS5003;50547;49.498;0.092;2022-11-13T04:47:25;78;66;
64229;PMS5003;50547;49.498;0.092;2022-11-13T04:49:55;80;68;
64229;PMS5003;50547;49.498;0.092;2022-11-13T04:52:24;76;65;
64229;PMS5003;50547;49.498;0.092;2022-11-13T04:54:53;92;76;
64229;PMS5003;50547;49.498;0.092;2022-11-13T04:57:22;73;61;
64229;PMS5003;50547;49.498;0.092;2022-11-13T04:59:51;76;65;
64229;PMS5003;50547;49.498;0.092;2022-11-13T05:02:21;85;71;
64229;PMS5003;50547;49.498;0.092;2022-11-13T05:04:50;96;80;
64229;PMS5003;50547;49.498;0.092;2022-11-13T05:07:19;99;81;
64229;PMS5003;50547;49.498;0.092;2022-11-13T05:09:48;92;76;
64229;PMS5003;50547;49.498;0.092;2022-11-13T05:12:18;101;83;
64229;PMS5003;50547;49.498;0.092;2022-11-13T05:14:47;105;86;
64229;PMS5003;50547;49.498;0.092;2022-11-13T05:17:16;101;83;
64229;PMS5003;50547;49.498;0.092;2022-11-13T05:19:45;99;81;
64229;PMS5003;50547;49.498;0.092;2022-11-13T05:22:15;92;76;
64229;PMS5003;50547;49.498;0.092;2022-11-13T05:24:44;87;73;
64229;PMS5003;50547;49.498;0.092;2022-11-13T05:27:13;74;63;
64229;PMS5003;50547;49.498;0.092;2022-11-13T05:29:42;82;68;
64229;PMS5003;50547;49.498;0.092;2022-11-13T05:32:11;78;66;
64229;PMS5003;50547;49.498;0.092;2022-11-13T05:34:40;67;58;
64229;PMS5003;50547;49.498;0.092;2022-11-13T05:37:10;73;61;
64229;PMS5003;50547;49.498;0.092;2022-11-13T05:39:39;67;58;
64229;PMS5003;50547;49.498;0.092;2022-11-13T05:42:08;57;50;
64229;PMS5003;50547;49.498;0.092;2022-11-13T05:44:37;67;58;
64229;PMS5003;50547;49.498;0.092;2022-11-13T05:47:06;78;66;
64229;PMS5003;50547;49.498;0.092;2022-11-13T05:49:35;66;56;
64229;PMS5003;50547;49.498;0.092;2022-11-13T05:52:04;74;63;
64229;PMS5003;50547;49.498;0.092;2022-11-13T05:54:33;80;68;
64229;PMS5003;50547;49.498;0.092;2022-11-13T05:57:02;67;58;
64229;PMS5003;50547;49.498;0.092;2022-11-13T05:59:31;55;48;
64229;PMS5003;50547;49.498;0.092;2022-11-13T06:02:01;51;45;
64229;PMS5003;50547;49.498;0.092;2022-11-13T06:04:30;66;56;
64229;PMS5003;50547;49.498;0.092;2022-11-13T06:06:59;87;73;
64229;PMS5003;50547;49.498;0.092;2022-11-13T06:09:28;92;76;
64229;PMS5003;50547;49.498;0.092;2022-11-13T06:11:57;74;63;
64229;PMS5003;50547;49.498;0.092;2022-11-13T06:14:26;64;55;
64229;PMS5003;50547;49.498;0.092;2022-11-13T06:16:56;58;51;
64229;PMS5003;50547;49.498;0.092;2022-11-13T06:19:25;55;48;
64229;PMS5003;50547;49.498;0.092;2022-11-13T06:21:54;51;45;
64229;PMS5003;50547;49.498;0.092;2022-11-13T06:24:23;43;41;
64229;PMS5003;50547;49.498;0.092;2022-11-13T06:26:53;44;43;
64229;PMS5003;50547;49.498;0.092;2022-11-13T06:29:22;41;38;
64229;PMS5003;50547;49.498;0.092;2022-11-13T06:31:51;42;40;
64229;PMS5003;50547;49.498;0.092;2022-11-13T06:34:20;42;40;
64229;PMS5003;50547;49.498;0.092;2022-11-13T06:36:49;45;43;
64229;PMS5003;50547;49.498;0.092;2022-11-13T06:39:18;44;43;
64229;PMS5003;50547;49.498;0.092;2022-11-13T06:41:47;44;43;
64229;PMS5003;50547;49.498;0.092;2022-11-13T06:44:17;44;43;
64229;PMS5003;50547;49.498;0.092;2022-11-13T06:46:46;64;55;
64229;PMS5003;50547;49.498;0.092;2022-11-13T06:49:15;66;56;
64229;PMS5003;50547;49.498;0.092;2022-11-13T06:51:44;67;58;
64229;PMS5003;50547;49.498;0.092;2022-11-13T06:54:13;60;53;
64229;PMS5003;50547;49.498;0.092;2022-11-13T06:56:43;60;53;
64229;PMS5003;50547;49.498;0.092;2022-11-13T06:59:12;57;50;
64229;PMS5003;50547;49.498;0.092;2022-11-13T07:01:41;60;53;
64229;PMS5003;50547;49.498;0.092;2022-11-13T07:04:10;66;56;
64229;PMS5003;50547;49.498;0.092;2022-11-13T07:06:40;55;48;
64229;PMS5003;50547;49.498;0.092;2022-11-13T07:09:09;55;48;
64229;PMS5003;50547;49.498;0.092;2022-11-13T07:11:38;44;43;
64229;PMS5003;50547;49.498;0.092;2022-11-13T07:14:08;44;43;
64229;PMS5003;50547;49.498;0.092;2022-11-13T07:16:38;44;43;
64229;PMS5003;50547;49.498;0.092;2022-11-13T07:19:07;55;48;
64229;PMS5003;50547;49.498;0.092;2022-11-13T07:21:37;64;55;
64229;PMS5003;50547;49.498;0.092;2022-11-13T07:24:06;71;61;
64229;PMS5003;50547;49.498;0.092;2022-11-13T07:26:35;55;48;
64229;PMS5003;50547;49.498;0.092;2022-11-13T07:29:04;53;46;
64229;PMS5003;50547;49.498;0.092;2022-11-13T07:31:33;62;53;
64229;PMS5003;50547;49.498;0.092;2022-11-13T07:34:03;42;40;
64229;PMS5003;50547;49.498;0.092;2022-11-13T07:36:32;41;38;
64229;PMS5003;50547;49.498;0.092;2022-11-13T07:39:01;37;33;
64229;PMS5003;50547;49.498;0.092;2022-11-13T07:41:30;35;30;
64229;PMS5003;50547;49.498;0.092;2022-11-13T07:44:00;36;31;
64229;PMS5003;50547;49.498;0.092;2022-11-13T07:46:29;35;30;
64229;PMS5003;50547;49.498;0.092;2022-11-13T07:48:58;35;30;
64229;PMS5003;50547;49.498;0.092;2022-11-13T07:51:27;35;30;
64229;PMS5003;50547;49.498;0.092;2022-11-13T07:53:56;37;33;
64229;PMS5003;50547;49.498;0.092;2022-11-13T07:56:22;35;30;
64229;PMS5003;50547;49.498;0.092;2022-11-13T07:58:51;73;61;
64229;PMS5003;50547;49.498;0.092;2022-11-13T08:01:21;37;33;
64229;PMS5003;50547;49.498;0.092;2022-11-13T08:03:50;36;31;
64229;PMS5003;50547;49.498;0.092;2022-11-13T08:06:19;37;33;
64229;PMS5003;50547;49.498;0.092;2022-11-13T08:08:48;37;33;
64229;PMS5003;50547;49.498;0.092;2022-11-13T08:11:18;36;31;
64229;PMS5003;50547;49.498;0.092;2022-11-13T08:13:47;37;33;
64229;PMS5003;50547;49.498;0.092;2022-11-13T08:16:16;37;33;
64229;PMS5003;50547;49.498;0.092;2022-11-13T08:18:46;34;29;
64229;PMS5003;50547;49.498;0.092;2022-11-13T08:21:13;35;30;
64229;PMS5003;50547;49.498;0.092;2022-11-13T08:23:42;36;31;
64229;PMS5003;50547;49.498;0.092;2022-11-13T08:26:11;34;29;
64229;PMS5003;50547;49.498;0.092;2022-11-13T08:28:40;35;30;
64229;PMS5003;50547;49.498;0.092;2022-11-13T08:31:10;37;33;
64229;PMS5003;50547;49.498;0.092;2022-11-13T08:33:46;40;36;
64229;PMS5003;50547;49.498;0.092;2022-11-13T08:36:12;38;35;
64229;PMS5003;50547;49.498;0.092;2022-11-13T08:38:41;36;31;
64229;PMS5003;50547;49.498;0.092;2022-11-13T08:41:10;37;33;
64229;PMS5003;50547;49.498;0.092;2022-11-13T08:43:40;38;35;
64229;PMS5003;50547;49.498;0.092;2022-11-13T08:46:09;41;38;
64229;PMS5003;50547;49.498;0.092;2022-11-13T08:48:38;42;40;
64229;PMS5003;50547;49.498;0.092;2022-11-13T08:51:07;44;43;
64229;PMS5003;50547;49.498;0.092;2022-11-13T08:53:37;42;40;
64229;PMS5003;50547;49.498;0.092;2022-11-13T08:56:07;41;38;
64229;PMS5003;50547;49.498;0.092;2022-11-13T08:59:15;41;38;
64229;PMS5003;50547;49.498;0.092;2022-11-13T09:01:44;41;38;
64229;PMS5003;50547;49.498;0.092;2022-11-13T09:04:13;42;40;
64229;PMS5003;50547;49.498;0.092;2022-11-13T09:06:58;41;38;
64229;PMS5003;50547;49.498;0.092;2022-11-13T09:09:27;41;38;
64229;PMS5003;50547;49.498;0.092;2022-11-13T09:11:57;41;38;
64229;PMS5003;50547;49.498;0.092;2022-11-13T09:14:26;43;41;
64229;PMS5003;50547;49.498;0.092;2022-11-13T09:16:55;41;38;
64229;PMS5003;50547;49.498;0.092;2022-11-13T09:19:24;55;48;
64229;PMS5003;50547;49.498;0.092;2022-11-13T09:21:53;66;56;
64229;PMS5003;50547;49.498;0.092;2022-11-13T09:24:48;73;61;
64229;PMS5003;50547;49.498;0.092;2022-11-13T09:27:17;66;56;
64229;PMS5003;50547;49.498;0.092;2022-11-13T09:29:46;53;46;
64229;PMS5003;50547;49.498;0.092;2022-11-13T09:32:15;62;53;
64229;PMS5003;50547;49.498;0.092;2022-11-13T09:34:43;67;58;
64229;PMS5003;50547;49.498;0.092;2022-11-13T09:37:12;51;45;
64229;PMS5003;50547;49.498;0.092;2022-11-13T09:39:42;41;38;
64229;PMS5003;50547;49.498;0.092;2022-11-13T09:42:12;35;30;
64229;PMS5003;50547;49.498;0.092;2022-11-13T09:44:45;37;33;
64229;PMS5003;50547;49.498;0.092;2022-11-13T09:47:19;37;33;
64229;PMS5003;50547;49.498;0.092;2022-11-13T09:49:52;38;35;
64229;PMS5003;50547;49.498;0.092;2022-11-13T09:52:28;42;40;
64229;PMS5003;50547;49.498;0.092;2022-11-13T09:55:00;42;40;
64229;PMS5003;50547;49.498;0.092;2022-11-13T09:57:31;41;38;
64229;PMS5003;50547;49.498;0.092;2022-11-13T10:00:10;38;35;
64229;PMS5003;50547;49.498;0.092;2022-11-13T10:02:44;40;36;
64229;PMS5003;50547;49.498;0.092;2022-11-13T10:05:20;37;33;
64229;PMS5003;50547;49.498;0.092;2022-11-13T10:07:55;37;33;
64229;PMS5003;50547;49.498;0.092;2022-11-13T10:10:36;35;30;
64229;PMS5003;50547;49.498;0.092;2022-11-13T10:13:17;34;29;
64229;PMS5003;50547;49.498;0.092;2022-11-13T10:15:49;30;26;
64229;PMS5003;50547;49.498;0.092;2022-11-13T10:18:21;30;26;
64229;PMS5003;50547;49.498;0.092;2022-11-13T10:20:54;23;20;
64229;PMS5003;50547;49.498;0.092;2022-11-13T10:23:26;23;20;
64229;PMS5003;50547;49.498;0.092;2022-11-13T10:26:00;24;21;
64229;PMS5003;50547;49.498;0.092;2022-11-13T10:28:40;25;22;
64229;PMS5003;50547;49.498;0.092;2022-11-13T10:31:10;26;23;
64229;PMS5003;50547;49.498;0.092;2022-11-13T10:33:40;26;23;
64229;PMS5003;50547;49.498;0.092;2022-11-13T10:36:12;25;22;
64229;PMS5003;50547;49.498;0.092;2022-11-13T10:38:49;23;20;
64229;PMS5003;50547;49.498;0.092;2022-11-13T10:41:26;23;20;
64229;PMS5003;50547;49.498;0.092;2022-11-13T10:43:56;22;19;
64229;PMS5003;50547;49.498;0.092;2022-11-13T10:46:27;23;20;
64229;PMS5003;50547;49.498;0.092;2022-11-13T10:49:09;22;19;
64229;PMS5003;50547;49.498;0.092;2022-11-13T10:51:39;20;17;
64229;PMS5003;50547;49.498;0.092;2022-11-13T10:54:24;20;17;
64229;PMS5003;50547;49.498;0.092;2022-11-13T10:56:56;23;20;
64229;PMS5003;50547;49.498;0.092;2022-11-13T10:59:36;22;19;
64229;PMS5003;50547;49.498;0.092;2022-11-13T11:02:15;22;19;
64229;PMS5003;50547;49.498;0.092;2022-11-13T11:04:46;22;19;
64229;PMS5003;50547;49.498;0.092;2022-11-13T11:07:16;24;21;
64229;PMS5003;50547;49.498;0.092;2022-11-13T11:09:48;33;28;
64229;PMS5003;50547;49.498;0.092;2022-11-13T11:12:17;35;30;
64229;PMS5003;50547;49.498;0.092;2022-11-13T11:14:51;34;29;
64229;PMS5003;50547;49.498;0.092;2022-11-13T11:17:28;28;24;
64229;PMS5003;50547;49.498;0.092;2022-11-13T11:20:04;24;21;
64229;PMS5003;50547;49.498;0.092;2022-11-13T11:22:37;23;20;
64229;PMS5003;50547;49.498;0.092;2022-11-13T11:25:09;22;19;
64229;PMS5003;50547;49.498;0.092;2022-11-13T11:27:45;20;17;
64229;PMS5003;50547;49.498;0.092;2022-11-13T11:30:19;20;17;
64229;PMS5003;50547;49.498;0.092;2022-11-13T11:32:53;20;17;
64229;PMS5003;50547;49.498;0.092;2022-11-13T11:35:30;19;17;
64229;PMS5003;50547;49.498;0.092;2022-11-13T11:38:07;18;16;
64229;PMS5003;50547;49.498;0.092;2022-11-13T11:40:42;17;15;
64229;PMS5003;50547;49.498;0.092;2022-11-13T11:43:17;18;16;
64229;PMS5003;50547;49.498;0.092;2022-11-13T11:45:51;18;16;
64229;PMS5003;50547;49.498;0.092;2022-11-13T11:48:21;19;17;
64229;PMS5003;50547;49.498;0.092;2022-11-13T11:50:54;20;17;
64229;PMS5003;50547;49.498;0.092;2022-11-13T11:53:33;23;20;
64229;PMS5003;50547;49.498;0.092;2022-11-13T11:56:11;67;58;
64229;PMS5003;50547;49.498;0.092;2022-11-13T11:58:53;20;17;
64229;PMS5003;50547;49.498;0.092;2022-11-13T12:01:40;23;20;
64229;PMS5003;50547;49.498;0.092;2022-11-13T12:04:26;19;17;
64229;PMS5003;50547;49.498;0.092;2022-11-13T12:07:12;21;18;
64229;PMS5003;50547;49.498;0.092;2022-11-13T12:09:53;21;18;
64229;PMS5003;50547;49.498;0.092;2022-11-13T12:12:36;20;17;
64229;PMS5003;50547;49.498;0.092;2022-11-13T12:15:17;20;17;
64229;PMS5003;50547;49.498;0.092;2022-11-13T12:17:54;20;17;
64229;PMS5003;50547;49.498;0.092;2022-11-13T12:20:34;20;17;
64229;PMS5003;50547;49.498;0.092;2022-11-13T12:23:10;18;16;
64229;PMS5003;50547;49.498;0.092;2022-11-13T12:25:50;19;17;
64229;PMS5003;50547;49.498;0.092;2022-11-13T12:28:23;18;16;
64229;PMS5003;50547;49.498;0.092;2022-11-13T12:31:03;14;14;
64229;PMS5003;50547;49.498;0.092;2022-11-13T12:33:42;14;14;
64229;PMS5003;50547;49.498;0.092;2022-11-13T12:36:19;14;14;
64229;PMS5003;50547;49.498;0.092;2022-11-13T12:38:58;14;14;
64229;PMS5003;50547;49.498;0.092;2022-11-13T12:41:35;14;14;
64229;PMS5003;50547;49.498;0.092;2022-11-13T12:44:19;15;14;
64229;PMS5003;50547;49.498;0.092;2022-11-13T12:46:51;15;14;
64229;PMS5003;50547;49.498;0.092;2022-11-13T12:49:25;17;15;
64229;PMS5003;50547;49.498;0.092;2022-11-13T12:51:58;14;14;
64229;PMS5003;50547;49.498;0.092;2022-11-13T12:54:29;14;14;
64229;PMS5003;50547;49.498;0.092;2022-11-13T12:57:15;13;13;
64229;PMS5003;50547;49.498;0.092;2022-11-13T12:59:45;13;13;
64229;PMS5003;50547;49.498;0.092;2022-11-13T13:02:27;13;13;
64229;PMS5003;50547;49.498;0.092;2022-11-13T13:05:03;13;13;
64229;PMS5003;50547;49.498;0.092;2022-11-13T13:07:50;13;13;
64229;PMS5003;50547;49.498;0.092;2022-11-13T13:10:35;11;11;
64229;PMS5003;50547;49.498;0.092;2022-11-13T13:13:16;11;11;
64229;PMS5003;50547;49.498;0.092;2022-11-13T13:15:53;13;13;
64229;PMS5003;50547;49.498;0.092;2022-11-13T13:18:25;11;11;
64229;PMS5003;50547;49.498;0.092;2022-11-13T13:20:58;13;13;
64229;PMS5003;50547;49.498;0.092;2022-11-13T13:23:32;11;11;
64229;PMS5003;50547;49.498;0.092;2022-11-13T13:26:05;13;13;
64229;PMS5003;50547;49.498;0.092;2022-11-13T13:28:43;13;13;
64229;PMS5003;50547;49.498;0.092;2022-11-13T13:31:20;13;13;
64229;PMS5003;50547;49.498;0.092;2022-11-13T13:34:00;13;13;
64229;PMS5003;50547;49.498;0.092;2022-11-13T13:36:49;13;13;
64229;PMS5003;50547;49.498;0.092;2022-11-13T13:39:29;11;11;
64229;PMS5003;50547;49.498;0.092;2022-11-13T13:42:12;11;11;
64229;PMS5003;50547;49.498;0.092;2022-11-13T13:44:54;13;13;
64229;PMS5003;50547;49.498;0.092;2022-11-13T13:47:34;11;11;
64229;PMS5003;50547;49.498;0.092;2022-11-13T13:50:05;11;11;
64229;PMS5003;50547;49.498;0.092;2022-11-13T13:52:36;13;13;
64229;PMS5003;50547;49.498;0.092;2022-11-13T13:55:06;11;11;
64229;PMS5003;50547;49.498;0.092;2022-11-13T13:57:44;11;11;
64229;PMS5003;50547;49.498;0.092;2022-11-13T14:00:14;11;11;
64229;PMS5003;50547;49.498;0.092;2022-11-13T14:02:47;13;13;
64229;PMS5003;50547;49.498;0.092;2022-11-13T14:05:22;13;13;
64229;PMS5003;50547;49.498;0.092;2022-11-13T14:07:54;13;13;
64229;PMS5003;50547;49.498;0.092;2022-11-13T14:10:24;20;17;
64229;PMS5003;50547;49.498;0.092;2022-11-13T14:12:54;14;14;
64229;PMS5003;50547;49.498;0.092;2022-11-13T14:15:25;13;13;
64229;PMS5003;50547;49.498;0.092;2022-11-13T14:18:03;14;14;
64229;PMS5003;50547;49.498;0.092;2022-11-13T14:20:37;14;14;
64229;PMS5003;50547;49.498;0.092;2022-11-13T14:23:10;20;17;
64229;PMS5003;50547;49.498;0.092;2022-11-13T14:25:59;20;17;
64229;PMS5003;50547;49.498;0.092;2022-11-13T14:28:29;21;18;
64229;PMS5003;50547;49.498;0.092;2022-11-13T14:31:01;19;17;
64229;PMS5003;50547;49.498;0.092;2022-11-13T14:33:34;18;16;
64229;PMS5003;50547;49.498;0.092;2022-11-13T14:36:07;19;17;
64229;PMS5003;50547;49.498;0.092;2022-11-13T14:38:43;19;17;
64229;PMS5003;50547;49.498;0.092;2022-11-13T14:41:18;17;15;
64229;PMS5003;50547;49.498;0.092;2022-11-13T14:43:54;18;16;
64229;PMS5003;50547;49.498;0.092;2022-11-13T14:46:30;15;14;
64229;PMS5003;50547;49.498;0.092;2022-11-13T14:49:03;18;16;
64229;PMS5003;50547;49.498;0.092;2022-11-13T14:51:41;18;16;
64229;PMS5003;50547;49.498;0.092;2022-11-13T14:54:28;17;15;
64229;PMS5003;50547;49.498;0.092;2022-11-13T14:57:07;17;15;
64229;PMS5003;50547;49.498;0.092;2022-11-13T14:59:37;14;14;
64229;PMS5003;50547;49.498;0.092;2022-11-13T15:02:04;15;14;
64229;PMS5003;50547;49.498;0.092;2022-11-13T15:04:38;18;16;
64229;PMS5003;50547;49.498;0.092;2022-11-13T15:07:18;14;14;
64229;PMS5003;50547;49.498;0.092;2022-11-13T15:09:47;14;14;
64229;PMS5003;50547;49.498;0.092;2022-11-13T15:12:17;14;14;
64229;PMS5003;50547;49.498;0.092;2022-11-13T15:14:46;14;14;
64229;PMS5003;50547;49.498;0.092;2022-11-13T15:17:16;18;16;
64229;PMS5003;50547;49.498;0.092;2022-11-13T15:19:47;17;15;
64229;PMS5003;50547;49.498;0.092;2022-11-13T15:22:36;14;14;
64229;PMS5003;50547;49.498;0.092;2022-11-13T15:25:11;14;14;
64229;PMS5003;50547;49.498;0.092;2022-11-13T15:27:41;14;14;
64229;PMS5003;50547;49.498;0.092;2022-11-13T15:30:16;14;14;
64229;PMS5003;50547;49.498;0.092;2022-11-13T15:32:46;15;14;
64229;PMS5003;50547;49.498;0.092;2022-11-13T15:35:16;15;14;
64229;PMS5003;50547;49.498;0.092;2022-11-13T15:37:46;18;16;
64229;PMS5003;50547;49.498;0.092;2022-11-13T15:40:16;18;16;
64229;PMS5003;50547;49.498;0.092;2022-11-13T15:42:45;15;14;
64229;PMS5003;50547;49.498;0.092;2022-11-13T15:45:37;14;14;
64229;PMS5003;50547;49.498;0.092;2022-11-13T15:48:08;15;14;
64229;PMS5003;50547;49.498;0.092;2022-11-13T15:50:37;15;14;
64229;PMS5003;50547;49.498;0.092;2022-11-13T15:53:06;14;14;
64229;PMS5003;50547;49.498;0.092;2022-11-13T15:55:39;15;14;
64229;PMS5003;50547;49.498;0.092;2022-11-13T15:58:12;18;16;
64229;PMS5003;50547;49.498;0.092;2022-11-13T16:00:48;18;16;
64229;PMS5003;50547;49.498;0.092;2022-11-13T16:03:17;18;16;
64229;PMS5003;50547;49.498;0.092;2022-11-13T16:05:46;18;16;
64229;PMS5003;50547;49.498;0.092;2022-11-13T16:08:15;20;17;
64229;PMS5003;50547;49.498;0.092;2022-11-13T16:10:45;19;17;
64229;PMS5003;50547;49.498;0.092;2022-11-13T16:13:14;21;18;
64229;PMS5003;50547;49.498;0.092;2022-11-13T16:15:43;20;17;
64229;PMS5003;50547;49.498;0.092;2022-11-13T16:18:22;22;19;
64229;PMS5003;50547;49.498;0.092;2022-11-13T16:20:53;22;19;
64229;PMS5003;50547;49.498;0.092;2022-11-13T16:23:20;22;19;
64229;PMS5003;50547;49.498;0.092;2022-11-13T16:25:50;23;20;
64229;PMS5003;50547;49.498;0.092;2022-11-13T16:28:21;23;20;
64229;PMS5003;50547;49.498;0.092;2022-11-13T16:30:50;23;20;
64229;PMS5003;50547;49.498;0.092;2022-11-13T16:33:20;22;19;
64229;PMS5003;50547;49.498;0.092;2022-11-13T16:35:49;22;19;
64229;PMS5003;50547;49.498;0.092;2022-11-13T16:38:18;22;19;
64229;PMS5003;50547;49.498;0.092;2022-11-13T16:40:47;22;19;
64229;PMS5003;50547;49.498;0.092;2022-11-13T16:43:16;21;18;
64229;PMS5003;50547;49.498;0.092;2022-11-13T16:45:46;22;19;
64229;PMS5003;50547;49.498;0.092;2022-11-13T16:48:15;22;19;